Terminal Aerodrome Forecast
Issued by NWS Chicago, IL

Home | Current Version | Previous Version | Text Only | Print | Product List | Glossary Off
Versions: 1 2 3 4 5 6 7 8 9 10 11 12 13 14 15 16 17 18 19 20 21 22 23 24 25 26 27 28 29 30 31

886
FTUS43 KLOT 190911 AAA
TAFRFD
TAF AMD
KRFD 190911Z 1909/2006 07004KT 4SM BR BKN005 OVC009
     FM191400 32005KT P6SM SCT009 BKN015 OVC025
     FM191800 30006KT P6SM BKN025
     FM192000 29007KT P6SM BKN035
     FM200000 06005KT P6SM BKN035
     FM200500 03009KT 6SM BR VCSH OVC020=

USA.gov is the U.S. government's official web portal to all federal, state and local government web resources and services.